Wilberforce, Ohio
Current Conditions -  °F | °C
As of 8:56 PM on Sunday 21 Dec 2014 (Local Time) from KSGH Reporting Station
Haze Haze  
Wind Chill: 17°   Ceiling: Unl
Heat Index: 24°   Visibility: 6mi
Dew Point: 23°   Wind: 6mph
Humidity: 96%   Direction: 140°SE
Pressure: 30.18"   Gusts: NA
Location:  39.72°N, 83.88°W
Report Text: KSGH 220156Z AUTO 14005KT 6SM BR CLR M04/M05 A3018 RMK AO2 T10441050 SLP235
Loading
Personal Weather Stations






























Interactive Weather Map New forecast layout! Learn more

10-Day Weather Forecast

Advertisements
Track Severe Weather on mobile